Time;durP1;ratioP1;P1;durP2;ratioP2;P2;SDS_P1;SDS_P2;PMS_P1;PMS_P2;Temp;Humidity;BMP_temperature;BMP_pressure;BME280_temperature;BME280_humidity;BME280_pressure;Samples;Min_cycle;Max_cycle;Signal;HPM_P1;HPM_P2
2023/01/01 00:00:47;;;;;;;174.70;145.87;;;;;;;5.70;64.50;96319.22;5014160;28;20211;-67
2023/01/01 00:03:13;;;;;;;175.83;139.37;;;;;;;5.61;64.47;96327.59;5014293;28;20682;-66
2023/01/01 00:05:38;;;;;;;166.20;138.33;;;;;;;5.70;64.14;96334.06;5015910;28;20227;-66
2023/01/01 00:08:04;;;;;;;189.70;153.30;;;;;;;5.50;64.35;96332.59;5013556;28;20195;-66
2023/01/01 00:10:29;;;;;;;193.93;157.50;;;;;;;5.54;64.38;96331.50;5003770;28;20226;-67
2023/01/01 00:12:56;;;;;;;185.87;154.70;;;;;;;5.61;64.36;96329.34;5011340;28;20283;-67
2023/01/01 00:15:22;;;;;;;188.00;150.83;;;;;;;5.53;64.72;96335.88;5013096;28;20382;-67
2023/01/01 00:17:47;;;;;;;198.60;153.63;;;;;;;5.37;65.19;96335.06;5017472;28;20325;-67
2023/01/01 00:20:13;;;;;;;192.70;149.63;;;;;;;5.31;65.76;96348.47;5010850;28;20187;-66
2023/01/01 00:22:40;;;;;;;175.40;143.03;;;;;;;5.21;66.07;96342.94;5011240;28;20219;-67
2023/01/01 00:25:06;;;;;;;180.33;143.60;;;;;;;5.33;66.48;96346.59;5017123;28;20373;-67
2023/01/01 00:27:32;;;;;;;178.17;139.67;;;;;;;5.43;65.48;96344.31;5021702;28;20321;-67
2023/01/01 00:29:57;;;;;;;173.53;143.70;;;;;;;5.35;65.68;96351.75;5014890;28;20233;-67
2023/01/01 00:32:23;;;;;;;170.30;134.97;;;;;;;5.25;65.41;96348.81;5014894;28;20250;-67
2023/01/01 00:34:48;;;;;;;178.80;138.83;;;;;;;5.36;65.01;96356.88;5017557;28;20186;-67
2023/01/01 00:37:14;;;;;;;156.20;124.73;;;;;;;5.16;65.51;96355.38;5013219;28;20229;-67
2023/01/01 00:39:40;;;;;;;166.50;131.93;;;;;;;5.23;64.97;96346.28;5008571;28;20227;-66
2023/01/01 00:42:05;;;;;;;168.63;129.60;;;;;;;5.13;64.99;96344.28;5012031;28;20298;-67
2023/01/01 00:44:31;;;;;;;152.77;122.37;;;;;;;5.11;65.05;96335.72;5017262;28;20182;-67
2023/01/01 00:46:56;;;;;;;145.90;118.50;;;;;;;5.16;64.79;96350.19;5023188;28;20191;-67
2023/01/01 00:49:22;;;;;;;141.33;114.37;;;;;;;5.21;64.57;96353.38;5022201;28;20252;-67
2023/01/01 00:51:47;;;;;;;149.57;118.70;;;;;;;5.06;65.34;96349.84;5011299;28;20219;-67
2023/01/01 00:54:13;;;;;;;159.97;120.20;;;;;;;5.02;64.91;96358.75;5010155;28;20227;-67
2023/01/01 00:56:38;;;;;;;143.87;118.13;;;;;;;4.98;64.59;96354.63;5016775;28;20288;-66
2023/01/01 00:59:04;;;;;;;154.70;123.97;;;;;;;4.93;64.97;96353.22;5020848;28;20175;-66
2023/01/01 01:01:30;;;;;;;157.97;123.10;;;;;;;4.96;64.90;96361.69;5021323;28;20223;-66
2023/01/01 01:03:56;;;;;;;171.77;137.33;;;;;;;5.02;64.06;96352.69;5019147;28;20225;-66
2023/01/01 01:06:21;;;;;;;168.67;136.47;;;;;;;5.08;64.31;96350.59;5014218;28;20235;-66
2023/01/01 01:08:47;;;;;;;188.17;149.30;;;;;;;5.14;64.92;96349.41;5013040;28;20231;-66
2023/01/01 01:11:16;;;;;;;193.30;155.57;;;;;;;5.06;65.30;96349.84;5024961;28;20191;-66
2023/01/01 01:13:43;;;;;;;193.40;147.00;;;;;;;5.06;65.16;96341.19;5024260;28;20215;-66
2023/01/01 01:16:29;;;;;;;195.80;150.33;;;;;;;5.10;64.92;96347.88;5012557;28;20210;-66
2023/01/01 01:18:58;;;;;;;187.80;149.63;;;;;;;5.04;64.61;96340.41;5026344;28;20218;-66
2023/01/01 01:21:25;;;;;;;198.13;149.00;;;;;;;5.08;64.83;96347.16;5017676;28;20223;-66
2023/01/01 01:23:52;;;;;;;203.50;154.60;;;;;;;5.03;64.99;96339.59;5009417;28;20220;-67
2023/01/01 01:26:24;;;;;;;191.53;149.27;;;;;;;5.08;64.51;96342.78;4997442;28;20234;-66
2023/01/01 01:28:50;;;;;;;208.70;155.57;;;;;;;4.94;65.17;96334.88;5020625;28;20297;-67
2023/01/01 01:31:16;;;;;;;204.17;162.17;;;;;;;4.81;65.60;96347.75;5011090;28;20219;-66
2023/01/01 01:33:42;;;;;;;206.43;153.83;;;;;;;4.88;65.18;96339.59;5019825;28;20223;-66
2023/01/01 01:36:09;;;;;;;194.67;148.17;;;;;;;4.84;65.50;96342.38;5014405;28;20210;-66
2023/01/01 01:38:34;;;;;;;189.13;147.23;;;;;;;4.89;65.15;96338.66;5004748;28;20266;-66
2023/01/01 01:41:00;;;;;;;197.90;153.40;;;;;;;4.86;65.20;96337.06;5012261;28;20189;-67
2023/01/01 01:43:31;;;;;;;200.03;158.30;;;;;;;4.71;65.66;96341.34;5004300;28;20238;-66
2023/01/01 01:46:05;;;;;;;211.43;160.83;;;;;;;4.56;66.14;96340.41;5017234;28;20226;-67
2023/01/01 01:48:39;;;;;;;206.70;162.10;;;;;;;4.55;66.39;96333.53;5002126;28;20263;-67
2023/01/01 01:51:05;;;;;;;195.10;154.60;;;;;;;4.59;65.93;96335.03;5018877;28;20228;-66
2023/01/01 01:53:34;;;;;;;207.30;164.47;;;;;;;4.68;65.51;96335.44;5008505;28;20191;-66
2023/01/01 01:56:07;;;;;;;208.47;162.67;;;;;;;4.69;65.48;96340.59;5014457;28;20180;-67
2023/01/01 01:58:34;;;;;;;206.40;163.30;;;;;;;4.71;65.36;96333.53;5006026;28;20234;-67
2023/01/01 02:01:00;;;;;;;210.17;169.30;;;;;;;4.71;65.12;96337.91;5027195;28;20314;-67
2023/01/01 02:03:28;;;;;;;212.23;165.10;;;;;;;4.75;64.91;96350.66;5018723;28;20305;-67
2023/01/01 02:05:54;;;;;;;214.00;167.30;;;;;;;4.75;64.79;96355.88;5018335;28;20232;-66
2023/01/01 02:08:20;;;;;;;196.57;153.80;;;;;;;4.70;65.09;96349.25;5027443;28;20190;-66
2023/01/01 02:10:46;;;;;;;190.03;147.33;;;;;;;4.62;65.21;96349.66;5019594;28;20197;-67
2023/01/01 02:13:12;;;;;;;188.60;148.90;;;;;;;4.65;65.55;96359.91;5004606;28;20215;-67
2023/01/01 02:15:53;;;;;;;181.93;142.63;;;;;;;4.66;65.23;96360.78;5007551;28;20306;-67
2023/01/01 02:18:24;;;;;;;184.60;140.77;;;;;;;4.73;65.34;96360.38;5021210;28;20269;-67
2023/01/01 02:21:00;;;;;;;179.23;141.47;;;;;;;4.71;65.74;96362.19;5006139;28;20246;-67
2023/01/01 02:23:30;;;;;;;185.70;145.93;;;;;;;4.77;65.45;96367.06;5026424;28;20186;-66
2023/01/01 02:26:08;;;;;;;188.03;143.40;;;;;;;4.68;65.58;96364.13;5030309;28;20363;-67
2023/01/01 02:28:36;;;;;;;184.83;145.23;;;;;;;4.52;66.71;96369.34;5010931;28;20231;-67
2023/01/01 02:31:03;;;;;;;187.20;143.07;;;;;;;4.56;66.86;96366.47;5024233;28;20226;-67
2023/01/01 02:33:28;;;;;;;186.57;146.13;;;;;;;4.62;66.58;96360.94;5019983;28;20234;-66
2023/01/01 02:35:58;;;;;;;188.23;146.70;;;;;;;4.71;66.20;96358.75;5016935;28;20217;-66
2023/01/01 02:38:40;;;;;;;196.67;149.40;;;;;;;4.73;65.76;96360.38;5011967;28;20198;-66
2023/01/01 02:41:11;;;;;;;194.50;148.37;;;;;;;4.79;65.65;96346.16;5013852;28;20187;-66
2023/01/01 02:43:37;;;;;;;185.27;148.17;;;;;;;4.77;65.46;96351.44;5017200;28;20218;-67
2023/01/01 02:46:08;;;;;;;179.03;141.57;;;;;;;4.75;65.47;96349.84;5019606;28;20729;-66
2023/01/01 02:48:46;;;;;;;179.80;143.40;;;;;;;4.74;65.67;96359.44;5016862;28;20266;-66
2023/01/01 02:51:57;;;;;;;183.87;143.77;;;;;;;4.62;65.68;96347.91;5023733;28;20228;-66
2023/01/01 02:54:34;;;;;;;189.53;143.73;;;;;;;4.60;65.63;96347.16;5018183;28;20226;-67
2023/01/01 02:57:11;;;;;;;180.87;140.40;;;;;;;4.60;65.32;96343.72;5008672;28;20235;-66
2023/01/01 03:02:45;;;;;;;192.93;143.27;;;;;;;4.46;66.13;96338.38;4990710;28;20194;-67
2023/01/01 03:06:21;;;;;;;187.30;145.97;;;;;;;4.48;66.12;96344.34;5002047;28;20294;-66
2023/01/01 03:08:32;;;;;;;194.97;146.43;;;;;;;4.43;66.16;96342.81;4986998;28;20318;-67
2023/01/01 03:11:09;;;;;;;189.60;144.50;;;;;;;4.42;65.97;96338.56;4997340;28;20192;-67
2023/01/01 03:13:50;;;;;;;201.67;149.97;;;;;;;4.51;65.98;96352.00;5004573;28;20223;-67
2023/01/01 03:16:37;;;;;;;187.23;147.47;;;;;;;4.39;65.95;96345.69;4991033;28;20230;-66
2023/01/01 03:19:17;;;;;;;186.07;141.17;;;;;;;4.30;66.45;96353.97;4989927;28;20361;-67
2023/01/01 03:21:48;;;;;;;183.40;139.90;;;;;;;4.33;66.04;96359.03;5009702;28;20299;-67
2023/01/01 03:24:38;;;;;;;176.50;136.33;;;;;;;4.40;66.11;96361.22;5017548;28;20231;-67
2023/01/01 03:27:16;;;;;;;176.27;135.63;;;;;;;4.29;65.88;96353.13;5000398;28;20302;-66
2023/01/01 03:29:44;;;;;;;182.70;141.13;;;;;;;4.19;65.79;96351.94;5019042;28;20309;-66
2023/01/01 03:32:15;;;;;;;183.80;143.70;;;;;;;4.15;66.44;96350.44;5017852;28;20273;-67
2023/01/01 03:34:46;;;;;;;177.33;136.80;;;;;;;4.24;66.11;96352.53;5019402;28;20225;-66
2023/01/01 03:37:17;;;;;;;186.87;140.87;;;;;;;4.31;65.82;96347.88;5035903;28;20222;-67
2023/01/01 03:39:49;;;;;;;184.70;141.27;;;;;;;4.32;65.70;96346.94;5021747;28;20230;-66
2023/01/01 03:42:33;;;;;;;184.37;142.57;;;;;;;4.14;67.25;96344.38;5028933;28;20226;-66
2023/01/01 03:45:15;;;;;;;182.07;142.37;;;;;;;3.95;66.70;96352.28;5020505;28;20254;-66
2023/01/01 03:47:40;;;;;;;181.13;143.63;;;;;;;4.06;66.44;96346.53;5017369;28;20230;-66
2023/01/01 03:50:06;;;;;;;182.43;145.37;;;;;;;4.07;66.62;96350.00;5017848;28;20246;-67
2023/01/01 03:53:02;;;;;;;178.70;143.90;;;;;;;3.92;66.68;96349.00;5008086;28;20219;-66
2023/01/01 03:55:35;;;;;;;190.40;146.40;;;;;;;4.03;65.75;96351.06;5026361;28;20301;-67
2023/01/01 03:58:14;;;;;;;184.00;143.60;;;;;;;3.92;66.18;96354.22;5006720;28;20214;-67
2023/01/01 04:00:47;;;;;;;187.50;140.87;;;;;;;3.91;66.56;96344.72;5013724;28;20234;-67
2023/01/01 04:03:12;;;;;;;175.90;137.60;;;;;;;4.03;66.10;96354.50;5010705;28;20262;-66
2023/01/01 04:05:41;;;;;;;175.00;130.93;;;;;;;3.96;66.10;96343.56;5029424;28;20247;-66
2023/01/01 04:08:08;;;;;;;170.97;133.77;;;;;;;4.07;66.12;96352.59;5020571;28;20190;-66
2023/01/01 04:10:38;;;;;;;172.63;132.97;;;;;;;3.91;66.07;96340.34;5022415;28;20229;-66
2023/01/01 04:13:05;;;;;;;162.07;126.27;;;;;;;3.93;66.24;96345.50;5015726;28;20322;-67
2023/01/01 04:15:31;;;;;;;160.80;123.50;;;;;;;3.97;66.11;96355.66;5016982;28;20222;-67
2023/01/01 04:17:57;;;;;;;167.00;126.20;;;;;;;4.04;65.93;96351.00;5009218;28;20223;-67
2023/01/01 04:20:23;;;;;;;159.40;124.60;;;;;;;4.02;65.91;96349.38;5021845;28;20308;-67
2023/01/01 04:22:48;;;;;;;155.03;123.50;;;;;;;3.86;65.98;96349.31;5016048;28;20220;-67
2023/01/01 04:25:16;;;;;;;161.30;118.60;;;;;;;3.75;66.43;96344.66;5011919;28;20246;-67
2023/01/01 04:27:42;;;;;;;159.13;122.83;;;;;;;3.91;66.21;96362.94;5013818;28;20322;-67
2023/01/01 04:30:11;;;;;;;161.20;124.57;;;;;;;3.93;65.37;96356.75;5027176;28;20227;-67
2023/01/01 04:32:36;;;;;;;162.77;125.13;;;;;;;3.81;65.82;96352.16;5015957;28;20197;-67
2023/01/01 04:35:02;;;;;;;164.33;126.60;;;;;;;3.76;65.92;96362.78;5025291;28;20187;-67
2023/01/01 04:37:28;;;;;;;159.07;120.30;;;;;;;3.76;66.13;96361.94;5014816;28;20227;-67
2023/01/01 04:39:53;;;;;;;152.43;116.47;;;;;;;3.85;65.75;96358.03;5011040;28;20226;-67
2023/01/01 04:42:18;;;;;;;151.87;113.47;;;;;;;3.79;66.24;96358.34;5014176;28;20285;-67
2023/01/01 04:44:44;;;;;;;148.27;114.03;;;;;;;3.79;65.86;96360.94;5012707;28;20228;-67
2023/01/01 04:47:09;;;;;;;150.60;116.20;;;;;;;3.76;65.81;96352.38;5014302;28;20186;-67
2023/01/01 04:49:35;;;;;;;159.03;117.00;;;;;;;3.84;65.90;96354.59;5005949;28;20345;-67
2023/01/01 04:52:01;;;;;;;150.73;113.67;;;;;;;3.83;65.78;96355.53;5026297;28;20229;-67
2023/01/01 04:54:26;;;;;;;149.27;111.87;;;;;;;3.85;65.56;96358.03;5012750;28;20329;-67
2023/01/01 04:56:52;;;;;;;143.43;111.93;;;;;;;3.83;65.72;96355.53;5019176;28;20329;-67
2023/01/01 04:59:17;;;;;;;138.87;109.00;;;;;;;3.91;66.38;96358.56;5015048;28;20191;-67
2023/01/01 05:01:43;;;;;;;138.83;103.73;;;;;;;3.87;66.54;96351.00;5011823;28;20207;-67
2023/01/01 05:04:14;;;;;;;144.10;102.90;;;;;;;3.85;66.37;96353.69;5021662;28;20230;-67
2023/01/01 05:06:39;;;;;;;136.37;104.73;;;;;;;3.87;66.68;96357.03;5010417;28;20259;-67
2023/01/01 05:09:05;;;;;;;148.53;111.60;;;;;;;3.86;66.82;96363.16;5012240;28;20245;-67
2023/01/01 05:11:31;;;;;;;133.13;102.57;;;;;;;3.85;66.56;96374.50;5010547;28;20278;-67
2023/01/01 05:13:58;;;;;;;132.20;98.70;;;;;;;3.86;66.40;96372.75;5031306;28;20254;-67
2023/01/01 05:16:27;;;;;;;126.90;99.43;;;;;;;3.62;66.97;96360.03;5018835;28;20215;-67
2023/01/01 05:18:53;;;;;;;156.07;113.77;;;;;;;3.58;67.16;96363.69;5011377;28;20231;-67
2023/01/01 05:21:24;;;;;;;148.23;114.07;;;;;;;3.75;67.06;96368.06;5007635;28;20310;-67
2023/01/01 05:23:58;;;;;;;135.40;107.17;;;;;;;3.72;66.80;96360.44;5013388;28;20253;-67
2023/01/01 05:26:27;;;;;;;129.47;98.80;;;;;;;3.68;66.83;96366.69;5013484;28;20234;-67
2023/01/01 05:28:53;;;;;;;131.50;103.53;;;;;;;3.63;66.88;96366.91;5012715;28;20179;-67
2023/01/01 05:31:22;;;;;;;134.83;105.20;;;;;;;3.66;66.73;96369.38;5011858;28;20223;-65
2023/01/01 05:33:48;;;;;;;139.77;108.20;;;;;;;3.64;66.46;96375.59;5016641;28;20219;-66
2023/01/01 05:36:28;;;;;;;143.33;109.43;;;;;;;3.72;66.44;96373.44;5010484;28;20239;-66
2023/01/01 05:38:54;;;;;;;132.07;101.43;;;;;;;3.67;66.25;96375.44;5010297;28;20231;-66
2023/01/01 05:41:21;;;;;;;130.97;103.30;;;;;;;3.67;66.06;96371.06;4995305;28;20192;-66
2023/01/01 05:43:47;;;;;;;148.27;113.80;;;;;;;3.57;66.08;96372.44;4996524;28;20269;-66
2023/01/01 05:46:16;;;;;;;149.40;115.13;;;;;;;3.60;66.27;96372.28;5011839;28;20231;-66
2023/01/01 05:48:44;;;;;;;154.33;117.33;;;;;;;3.59;66.03;96377.56;5016098;28;20234;-67
2023/01/01 05:51:15;;;;;;;142.83;108.00;;;;;;;3.46;66.17;96372.97;5006202;28;20223;-66
2023/01/01 05:53:41;;;;;;;148.83;116.73;;;;;;;3.39;66.46;96368.97;5010650;28;20214;-66
2023/01/01 05:56:07;;;;;;;150.37;117.30;;;;;;;3.36;66.55;96376.09;5011106;28;20180;-66
2023/01/01 05:58:34;;;;;;;151.47;115.10;;;;;;;3.40;66.50;96381.06;5030228;28;20218;-66
2023/01/01 06:01:10;;;;;;;148.93;111.93;;;;;;;3.43;66.54;96375.72;5013922;28;20215;-66
2023/01/01 06:03:36;;;;;;;149.33;111.63;;;;;;;3.46;66.37;96374.72;5012040;28;20222;-66
2023/01/01 06:06:06;;;;;;;145.93;110.00;;;;;;;3.48;66.52;96385.91;5010672;28;20246;-66
2023/01/01 06:08:32;;;;;;;151.70;118.00;;;;;;;3.46;66.68;96380.75;5018695;28;20253;-66
2023/01/01 06:11:02;;;;;;;143.40;109.00;;;;;;;3.58;66.34;96381.91;5013479;28;20174;-67
2023/01/01 06:13:28;;;;;;;138.57;106.00;;;;;;;3.61;65.79;96386.97;5017301;28;20339;-66
2023/01/01 06:15:59;;;;;;;137.67;106.07;;;;;;;3.58;66.35;96384.50;5017014;28;20246;-66
2023/01/01 06:18:28;;;;;;;135.80;103.23;;;;;;;3.59;66.77;96383.59;5027382;28;20225;-66
2023/01/01 06:20:53;;;;;;;129.80;102.40;;;;;;;3.68;65.96;96387.50;5017594;28;20223;-67
2023/01/01 06:23:19;;;;;;;130.10;99.47;;;;;;;3.75;65.42;96388.91;5022885;28;20179;-67
2023/01/01 06:25:45;;;;;;;128.47;95.73;;;;;;;3.83;65.39;96391.13;5027010;28;20203;-67
2023/01/01 06:28:10;;;;;;;132.60;97.27;;;;;;;3.79;65.65;96394.78;5010062;28;20273;-67
2023/01/01 06:30:36;;;;;;;123.53;94.67;;;;;;;3.78;66.14;96393.09;5014335;28;20223;-67
2023/01/01 06:33:03;;;;;;;121.67;94.30;;;;;;;3.84;65.61;96390.19;5011565;28;20297;-67
2023/01/01 06:35:29;;;;;;;131.27;98.67;;;;;;;3.68;67.03;96392.72;5018789;28;20182;-67
2023/01/01 06:37:54;;;;;;;121.90;92.67;;;;;;;3.75;66.61;96399.31;5020382;28;20181;-67
2023/01/01 06:40:20;;;;;;;130.53;98.90;;;;;;;3.88;66.41;96399.53;5015993;28;20219;-67
2023/01/01 06:42:45;;;;;;;140.40;100.90;;;;;;;3.96;66.63;96402.59;5021033;28;20595;-67
2023/01/01 06:45:12;;;;;;;124.60;96.57;;;;;;;3.91;66.72;96410.63;5008678;28;20229;-67
2023/01/01 06:47:38;;;;;;;136.33;101.07;;;;;;;3.97;66.92;96415.50;5023275;28;20237;-67
2023/01/01 06:50:04;;;;;;;131.57;101.03;;;;;;;3.64;67.78;96412.00;5009556;28;20223;-67
2023/01/01 06:52:29;;;;;;;125.47;98.60;;;;;;;3.94;66.68;96420.88;5017934;28;20214;-67
2023/01/01 06:54:55;;;;;;;124.47;95.37;;;;;;;4.06;65.97;96422.00;5007895;28;20238;-67
2023/01/01 06:57:20;;;;;;;132.60;97.77;;;;;;;3.98;66.00;96417.22;5010758;28;20235;-67
2023/01/01 06:59:46;;;;;;;124.97;95.07;;;;;;;3.98;66.09;96422.41;5023914;28;20262;-67
2023/01/01 07:02:12;;;;;;;138.73;101.73;;;;;;;4.07;66.44;96433.28;5013901;28;20265;-67
2023/01/01 07:04:37;;;;;;;135.37;101.87;;;;;;;3.94;68.29;96433.03;5027697;28;20219;-67
2023/01/01 07:07:04;;;;;;;123.60;95.67;;;;;;;4.14;67.04;96432.91;5015012;28;20241;-67
2023/01/01 07:09:29;;;;;;;125.70;95.93;;;;;;;4.28;66.00;96424.38;5017873;28;20214;-67
2023/01/01 07:11:55;;;;;;;124.07;95.67;;;;;;;4.31;66.02;96426.81;5010831;28;20223;-67
2023/01/01 07:14:20;;;;;;;135.33;101.97;;;;;;;4.43;66.06;96431.38;5012280;28;20210;-67
2023/01/01 07:16:45;;;;;;;132.00;98.90;;;;;;;4.49;66.42;96431.97;5004330;28;20180;-67
2023/01/01 07:19:11;;;;;;;121.93;93.90;;;;;;;4.51;66.38;96430.16;5006963;28;20306;-66
2023/01/01 07:21:43;;;;;;;124.37;94.10;;;;;;;4.64;66.45;96436.41;5011632;28;20219;-66
2023/01/01 07:24:13;;;;;;;146.13;110.10;;;;;;;4.61;67.17;96426.13;5009852;28;20219;-65
2023/01/01 07:26:39;;;;;;;140.23;109.67;;;;;;;4.75;66.78;96431.44;5009605;28;20254;-68
2023/01/01 07:29:07;;;;;;;133.27;102.73;;;;;;;4.92;66.49;96419.28;5017322;28;20195;-67
2023/01/01 07:31:36;;;;;;;144.73;105.60;;;;;;;4.99;66.17;96426.69;5015548;28;20289;-66
2023/01/01 07:34:02;;;;;;;138.63;105.33;;;;;;;5.03;66.45;96425.63;4998357;28;20269;-68
2023/01/01 07:36:28;;;;;;;142.33;106.40;;;;;;;4.95;66.94;96419.16;5018108;28;20227;-67
2023/01/01 07:38:53;;;;;;;153.07;109.40;;;;;;;5.04;66.83;96427.28;5003954;28;20223;-66
2023/01/01 07:41:19;;;;;;;137.57;108.13;;;;;;;5.22;66.89;96433.28;5011154;28;20282;-67
2023/01/01 07:43:44;;;;;;;141.87;107.37;;;;;;;5.34;66.37;96418.69;5016246;28;20215;-67
2023/01/01 07:46:12;;;;;;;129.67;99.37;;;;;;;5.44;65.84;96417.25;5014546;28;20261;-67
2023/01/01 07:48:37;;;;;;;113.00;88.13;;;;;;;5.54;65.40;96412.38;5019328;28;20227;-66
2023/01/01 07:51:03;;;;;;;119.87;82.93;;;;;;;5.57;65.26;96422.63;5014036;28;20226;-67
2023/01/01 07:53:28;;;;;;;124.63;85.97;;;;;;;5.64;65.18;96431.81;5017578;28;20232;-66
2023/01/01 07:55:54;;;;;;;117.90;85.47;;;;;;;5.68;65.09;96417.66;5018559;28;20194;-66
2023/01/01 07:58:21;;;;;;;118.30;82.57;;;;;;;5.75;64.77;96418.97;5019181;28;20230;-66
2023/01/01 08:00:47;;;;;;;112.70;80.00;;;;;;;5.77;64.69;96425.88;5011552;28;20227;-66
2023/01/01 08:03:14;;;;;;;112.83;81.20;;;;;;;5.86;64.51;96422.75;5019049;28;20213;-67
2023/01/01 08:05:39;;;;;;;110.30;78.83;;;;;;;5.87;64.38;96424.44;5015621;28;20227;-67
2023/01/01 08:08:05;;;;;;;107.13;78.00;;;;;;;5.97;64.29;96426.44;5025833;28;20194;-66
2023/01/01 08:10:31;;;;;;;106.53;78.40;;;;;;;6.11;64.16;96427.41;5009492;28;20302;-67
2023/01/01 08:13:01;;;;;;;98.30;70.40;;;;;;;6.07;63.86;96428.53;5027045;28;20227;-67
2023/01/01 08:15:26;;;;;;;99.00;71.83;;;;;;;6.09;63.79;96439.72;5011337;28;20265;-67
2023/01/01 08:17:57;;;;;;;101.30;71.37;;;;;;;6.17;63.86;96443.59;5016942;28;20226;-67
2023/01/01 08:20:22;;;;;;;107.63;76.80;;;;;;;6.31;63.65;96447.16;5015046;28;20205;-67
2023/01/01 08:22:47;;;;;;;107.37;78.87;;;;;;;6.32;63.65;96436.59;5027001;28;20191;-67
2023/01/01 08:25:13;;;;;;;96.77;71.53;;;;;;;6.37;63.69;96447.63;5009381;28;20313;-67
2023/01/01 08:27:38;;;;;;;100.37;77.53;;;;;;;6.42;63.22;96441.28;5014625;28;20227;-67
2023/01/01 08:30:04;;;;;;;102.70;76.90;;;;;;;6.40;62.41;96449.22;5014924;28;20242;-67
2023/01/01 08:32:30;;;;;;;108.10;78.27;;;;;;;6.08;63.59;96443.25;5007672;28;20192;-67
2023/01/01 08:34:55;;;;;;;95.60;70.10;;;;;;;6.18;63.58;96439.19;5011899;28;20187;-67
2023/01/01 08:37:22;;;;;;;104.53;75.00;;;;;;;6.43;62.89;96438.56;5005606;28;20215;-68
2023/01/01 08:39:51;;;;;;;104.47;77.67;;;;;;;6.34;63.34;96439.13;5009577;28;20225;-66
2023/01/01 08:42:17;;;;;;;100.93;76.97;;;;;;;6.23;63.54;96437.16;4994077;28;20358;-66
2023/01/01 08:44:42;;;;;;;103.63;76.33;;;;;;;6.35;63.85;96440.81;4995419;28;20277;-66
2023/01/01 08:47:22;;;;;;;100.03;74.83;;;;;;;6.52;63.50;96442.41;5023303;28;20291;-66
2023/01/01 08:49:48;;;;;;;98.30;76.13;;;;;;;6.56;62.71;96434.28;5011381;28;20254;-66
2023/01/01 08:52:14;;;;;;;101.03;78.63;;;;;;;6.64;62.95;96441.66;5010831;28;20219;-66
2023/01/01 08:54:40;;;;;;;102.30;80.40;;;;;;;6.65;62.59;96434.66;5011586;28;20229;-66
2023/01/01 08:57:06;;;;;;;102.20;78.33;;;;;;;6.69;62.07;96426.56;5009664;28;20230;-66
2023/01/01 08:59:31;;;;;;;97.57;74.67;;;;;;;6.78;61.41;96436.44;5014766;28;20183;-67
2023/01/01 09:01:58;;;;;;;98.23;75.67;;;;;;;6.65;61.71;96432.88;5017367;28;20193;-67
2023/01/01 09:04:24;;;;;;;99.77;73.17;;;;;;;6.88;61.45;96430.66;5010237;28;20303;-67
2023/01/01 09:06:49;;;;;;;97.97;76.13;;;;;;;6.61;62.04;96427.00;5014742;28;20253;-67
2023/01/01 09:09:15;;;;;;;99.67;76.13;;;;;;;6.57;61.91;96429.91;4997592;28;20365;-67
2023/01/01 09:11:53;;;;;;;90.90;68.57;;;;;;;6.74;62.03;96421.06;4995754;28;20226;-67
2023/01/01 09:14:19;;;;;;;85.97;66.17;;;;;;;6.81;60.97;96422.34;5011237;28;20191;-67
2023/01/01 09:16:45;;;;;;;87.60;66.53;;;;;;;6.91;61.01;96423.47;5018976;28;20201;-67
2023/01/01 09:19:10;;;;;;;83.57;64.97;;;;;;;7.02;60.18;96410.53;5016734;28;20249;-67
2023/01/01 09:21:35;;;;;;;85.53;66.93;;;;;;;6.97;60.09;96403.94;5015117;28;20231;-67
2023/01/01 09:24:01;;;;;;;82.80;66.37;;;;;;;7.06;59.98;96400.75;5023494;28;20238;-67
2023/01/01 09:26:26;;;;;;;81.60;64.30;;;;;;;7.07;60.09;96398.03;4997939;28;20221;-66
2023/01/01 09:28:52;;;;;;;71.17;56.73;;;;;;;7.18;59.37;96399.97;5011734;28;20238;-66
2023/01/01 09:31:17;;;;;;;68.97;56.30;;;;;;;7.29;59.51;96391.44;5017785;28;20226;-67
2023/01/01 09:33:42;;;;;;;73.10;56.70;;;;;;;7.38;59.43;96390.88;5006596;28;20222;-66
2023/01/01 09:36:27;;;;;;;76.97;59.83;;;;;;;7.50;59.06;96390.06;5013337;28;20317;-67
2023/01/01 09:38:53;;;;;;;72.60;59.53;;;;;;;7.62;58.78;96390.22;4990151;28;20227;-66
2023/01/01 09:41:45;;;;;;;75.63;60.53;;;;;;;7.62;58.56;96392.84;5013623;28;20282;-67
2023/01/01 09:44:32;;;;;;;77.17;59.77;;;;;;;7.65;58.47;96393.47;5024204;28;20222;-66
2023/01/01 09:47:04;;;;;;;73.07;59.80;;;;;;;7.70;58.60;96382.72;5010163;28;20233;-66
2023/01/01 09:49:33;;;;;;;77.37;61.30;;;;;;;7.80;58.06;96382.91;5028840;28;20297;-66
2023/01/01 09:52:04;;;;;;;79.17;58.27;;;;;;;7.88;57.95;96375.38;5016471;28;20237;-66
2023/01/01 09:54:57;;;;;;;71.83;60.17;;;;;;;7.78;58.37;96375.19;5001812;28;20222;-66
2023/01/01 09:57:30;;;;;;;71.37;58.80;;;;;;;7.80;58.10;96369.81;4945927;28;20247;-66
2023/01/01 09:59:58;;;;;;;76.83;59.93;;;;;;;7.82;58.15;96370.56;4961166;28;20228;-66
2023/01/01 10:02:45;;;;;;;71.30;56.67;;;;;;;7.99;57.86;96369.44;4952994;28;20204;-68
2023/01/01 10:06:07;;;;;;;74.43;58.73;;;;;;;8.20;57.19;96375.03;4964473;28;20195;-67
2023/01/01 10:08:40;;;;;;;74.33;59.00;;;;;;;8.31;56.77;96365.50;4913601;29;20225;-67
2023/01/01 10:11:13;;;;;;;72.07;58.10;;;;;;;8.27;57.24;96374.50;4917024;29;20223;-67
2023/01/01 10:13:44;;;;;;;72.47;56.50;;;;;;;8.43;56.99;96370.88;4920449;29;20240;-66
2023/01/01 10:16:25;;;;;;;70.40;58.93;;;;;;;8.63;56.40;96364.25;4919745;29;20229;-67
2023/01/01 10:18:54;;;;;;;66.57;56.70;;;;;;;8.69;55.96;96362.03;4921275;29;20233;-67
2023/01/01 10:21:25;;;;;;;69.33;57.60;;;;;;;8.71;56.04;96359.28;4922633;29;20236;-67
2023/01/01 10:23:53;;;;;;;72.03;56.13;;;;;;;8.81;56.03;96366.41;4914654;29;20229;-65
2023/01/01 10:26:22;;;;;;;68.70;57.00;;;;;;;8.71;56.16;96365.38;4932018;29;20220;-67
2023/01/01 10:29:00;;;;;;;70.17;57.40;;;;;;;8.75;56.34;96366.84;4933672;29;20224;-67
2023/01/01 10:31:34;;;;;;;65.37;53.37;;;;;;;8.72;56.42;96361.81;4918167;29;20226;-67
2023/01/01 10:34:21;;;;;;;65.80;52.57;;;;;;;8.81;56.18;96358.53;4928352;29;20248;-67
2023/01/01 10:36:50;;;;;;;65.73;52.73;;;;;;;8.67;56.57;96352.59;4936280;28;20594;-67
2023/01/01 10:39:16;;;;;;;65.13;53.87;;;;;;;8.66;57.19;96348.28;4975714;28;20231;-67
2023/01/01 10:41:43;;;;;;;61.80;50.30;;;;;;;8.82;57.00;96344.50;5021551;28;20233;-66
2023/01/01 10:44:11;;;;;;;55.50;46.23;;;;;;;9.13;56.32;96329.19;5014456;28;20289;-68
2023/01/01 10:46:43;;;;;;;54.83;45.93;;;;;;;9.33;55.82;96333.00;5008591;28;20227;-67
2023/01/01 10:49:11;;;;;;;58.20;47.23;;;;;;;9.57;55.16;96327.75;5011698;28;20225;-67
2023/01/01 10:51:45;;;;;;;54.50;45.40;;;;;;;9.68;54.62;96319.06;5009120;28;20223;-67
2023/01/01 10:54:32;;;;;;;54.13;42.87;;;;;;;9.81;54.75;96317.19;5013148;28;20233;-67
2023/01/01 10:56:59;;;;;;;51.60;41.03;;;;;;;9.97;54.45;96302.88;4999042;28;20229;-67
2023/01/01 10:59:37;;;;;;;47.33;41.33;;;;;;;10.26;53.32;96313.78;5009398;28;20257;-67
2023/01/01 11:02:26;;;;;;;52.03;42.63;;;;;;;10.26;53.45;96298.84;5031107;28;20195;-67
2023/01/01 11:05:11;;;;;;;47.10;39.73;;;;;;;10.42;53.09;96295.06;5021822;28;20222;-67
2023/01/01 11:07:36;;;;;;;44.00;37.93;;;;;;;10.53;52.99;96298.56;5031676;28;20232;-67
2023/01/01 11:10:05;;;;;;;45.13;38.03;;;;;;;10.67;52.34;96301.91;5020126;28;20226;-67
2023/01/01 11:12:35;;;;;;;43.63;38.00;;;;;;;10.63;52.57;96292.56;5021933;28;20225;-67
2023/01/01 11:15:01;;;;;;;43.23;36.83;;;;;;;10.67;52.33;96291.38;5016228;28;20222;-67
2023/01/01 11:17:34;;;;;;;43.37;37.33;;;;;;;10.83;52.12;96283.94;5013391;28;20191;-67
2023/01/01 11:20:01;;;;;;;45.27;36.60;;;;;;;10.89;52.04;96283.44;5017817;28;20182;-67
2023/01/01 11:22:49;;;;;;;46.03;37.43;;;;;;;11.07;51.52;96278.50;5023032;28;20310;-67
2023/01/01 11:25:27;;;;;;;42.93;36.10;;;;;;;11.16;51.59;96279.56;5021786;28;20290;-69
2023/01/01 11:28:18;;;;;;;42.27;37.63;;;;;;;11.21;51.44;96280.84;5031555;28;20230;-68